sensor_id;sensor_type;location;lat;lon;timestamp;P1;durP1;ratioP1;P2;durP2;ratioP2
6517;SDS011;3292;48.944;9.240;2023-07-08T00:01:59;7.73;;;6.60;;
6517;SDS011;3292;48.944;9.240;2023-07-08T00:04:26;7.97;;;6.50;;
6517;SDS011;3292;48.944;9.240;2023-07-08T00:06:53;7.77;;;6.33;;
6517;SDS011;3292;48.944;9.240;2023-07-08T00:09:19;9.50;;;6.63;;
6517;SDS011;3292;48.944;9.240;2023-07-08T00:11:46;9.40;;;6.53;;
6517;SDS011;3292;48.944;9.240;2023-07-08T00:14:13;8.53;;;6.80;;
6517;SDS011;3292;48.944;9.240;2023-07-08T00:16:41;7.57;;;6.40;;
6517;SDS011;3292;48.944;9.240;2023-07-08T00:19:08;7.20;;;6.23;;
6517;SDS011;3292;48.944;9.240;2023-07-08T00:21:35;8.63;;;6.73;;
6517;SDS011;3292;48.944;9.240;2023-07-08T00:24:02;6.83;;;6.13;;
6517;SDS011;3292;48.944;9.240;2023-07-08T00:26:29;8.20;;;6.07;;
6517;SDS011;3292;48.944;9.240;2023-07-08T00:28:57;7.60;;;6.80;;
6517;SDS011;3292;48.944;9.240;2023-07-08T00:31:24;6.93;;;6.23;;
6517;SDS011;3292;48.944;9.240;2023-07-08T00:33:52;8.20;;;6.87;;
6517;SDS011;3292;48.944;9.240;2023-07-08T00:36:21;8.27;;;6.97;;
6517;SDS011;3292;48.944;9.240;2023-07-08T00:38:49;7.47;;;6.67;;
6517;SDS011;3292;48.944;9.240;2023-07-08T00:41:18;7.80;;;6.23;;
6517;SDS011;3292;48.944;9.240;2023-07-08T00:43:49;7.50;;;6.70;;
6517;SDS011;3292;48.944;9.240;2023-07-08T00:46:21;7.10;;;6.23;;
6517;SDS011;3292;48.944;9.240;2023-07-08T00:49:00;7.50;;;6.70;;
6517;SDS011;3292;48.944;9.240;2023-07-08T00:51:39;7.17;;;6.20;;
6517;SDS011;3292;48.944;9.240;2023-07-08T00:54:09;8.57;;;5.87;;
6517;SDS011;3292;48.944;9.240;2023-07-08T00:56:38;6.87;;;5.60;;
6517;SDS011;3292;48.944;9.240;2023-07-08T00:59:09;7.23;;;6.20;;
6517;SDS011;3292;48.944;9.240;2023-07-08T01:01:39;7.30;;;6.30;;
6517;SDS011;3292;48.944;9.240;2023-07-08T01:04:11;6.90;;;6.20;;
6517;SDS011;3292;48.944;9.240;2023-07-08T01:06:45;7.93;;;6.37;;
6517;SDS011;3292;48.944;9.240;2023-07-08T01:09:22;6.57;;;5.87;;
6517;SDS011;3292;48.944;9.240;2023-07-08T01:11:53;8.23;;;6.43;;
6517;SDS011;3292;48.944;9.240;2023-07-08T01:14:22;6.53;;;5.90;;
6517;SDS011;3292;48.944;9.240;2023-07-08T01:16:50;6.10;;;5.50;;
6517;SDS011;3292;48.944;9.240;2023-07-08T01:19:19;8.17;;;6.40;;
6517;SDS011;3292;48.944;9.240;2023-07-08T01:22:01;8.50;;;6.47;;
6517;SDS011;3292;48.944;9.240;2023-07-08T01:24:29;7.13;;;6.43;;
6517;SDS011;3292;48.944;9.240;2023-07-08T01:26:56;6.30;;;5.70;;
6517;SDS011;3292;48.944;9.240;2023-07-08T01:29:24;7.40;;;6.60;;
6517;SDS011;3292;48.944;9.240;2023-07-08T01:31:51;7.47;;;6.23;;
6517;SDS011;3292;48.944;9.240;2023-07-08T01:34:20;8.13;;;6.53;;
6517;SDS011;3292;48.944;9.240;2023-07-08T01:36:48;8.43;;;6.13;;
6517;SDS011;3292;48.944;9.240;2023-07-08T01:39:20;7.30;;;6.43;;
6517;SDS011;3292;48.944;9.240;2023-07-08T01:41:49;7.33;;;6.20;;
6517;SDS011;3292;48.944;9.240;2023-07-08T01:44:27;7.37;;;5.93;;
6517;SDS011;3292;48.944;9.240;2023-07-08T01:46:55;6.60;;;5.97;;
6517;SDS011;3292;48.944;9.240;2023-07-08T01:49:26;8.37;;;6.37;;
6517;SDS011;3292;48.944;9.240;2023-07-08T01:51:53;6.77;;;6.07;;
6517;SDS011;3292;48.944;9.240;2023-07-08T01:54:22;7.77;;;6.37;;
6517;SDS011;3292;48.944;9.240;2023-07-08T01:56:53;7.03;;;6.00;;
6517;SDS011;3292;48.944;9.240;2023-07-08T01:59:21;6.70;;;6.10;;
6517;SDS011;3292;48.944;9.240;2023-07-08T02:01:48;8.10;;;6.00;;
6517;SDS011;3292;48.944;9.240;2023-07-08T02:04:19;10.07;;;6.13;;
6517;SDS011;3292;48.944;9.240;2023-07-08T02:06:50;6.57;;;5.87;;
6517;SDS011;3292;48.944;9.240;2023-07-08T02:09:17;8.67;;;6.10;;
6517;SDS011;3292;48.944;9.240;2023-07-08T02:11:45;7.17;;;6.30;;
6517;SDS011;3292;48.944;9.240;2023-07-08T02:14:12;8.53;;;6.33;;
6517;SDS011;3292;48.944;9.240;2023-07-08T02:16:39;9.30;;;6.80;;
6517;SDS011;3292;48.944;9.240;2023-07-08T02:19:06;7.30;;;6.47;;
6517;SDS011;3292;48.944;9.240;2023-07-08T02:21:33;7.23;;;6.23;;
6517;SDS011;3292;48.944;9.240;2023-07-08T02:23:59;8.23;;;6.53;;
6517;SDS011;3292;48.944;9.240;2023-07-08T02:26:26;8.40;;;6.37;;
6517;SDS011;3292;48.944;9.240;2023-07-08T02:28:55;7.37;;;6.20;;
6517;SDS011;3292;48.944;9.240;2023-07-08T02:31:22;7.03;;;6.33;;
6517;SDS011;3292;48.944;9.240;2023-07-08T02:33:49;7.20;;;6.20;;
6517;SDS011;3292;48.944;9.240;2023-07-08T02:36:16;7.27;;;5.53;;
6517;SDS011;3292;48.944;9.240;2023-07-08T02:38:43;8.10;;;6.33;;
6517;SDS011;3292;48.944;9.240;2023-07-08T02:41:10;7.00;;;6.30;;
6517;SDS011;3292;48.944;9.240;2023-07-08T02:43:37;7.63;;;5.90;;
6517;SDS011;3292;48.944;9.240;2023-07-08T02:46:05;6.93;;;5.90;;
6517;SDS011;3292;48.944;9.240;2023-07-08T02:48:32;7.80;;;6.67;;
6517;SDS011;3292;48.944;9.240;2023-07-08T02:50:59;7.23;;;6.17;;
6517;SDS011;3292;48.944;9.240;2023-07-08T02:53:26;12.37;;;6.70;;
6517;SDS011;3292;48.944;9.240;2023-07-08T02:55:52;6.63;;;5.77;;
6517;SDS011;3292;48.944;9.240;2023-07-08T02:58:19;8.83;;;6.73;;
6517;SDS011;3292;48.944;9.240;2023-07-08T03:00:50;7.87;;;7.03;;
6517;SDS011;3292;48.944;9.240;2023-07-08T03:03:19;6.93;;;6.00;;
6517;SDS011;3292;48.944;9.240;2023-07-08T03:05:53;6.77;;;6.10;;
6517;SDS011;3292;48.944;9.240;2023-07-08T03:08:20;7.80;;;6.43;;
6517;SDS011;3292;48.944;9.240;2023-07-08T03:10:54;8.20;;;6.30;;
6517;SDS011;3292;48.944;9.240;2023-07-08T03:13:25;6.97;;;6.27;;
6517;SDS011;3292;48.944;9.240;2023-07-08T03:15:53;7.23;;;6.40;;
6517;SDS011;3292;48.944;9.240;2023-07-08T03:18:22;8.50;;;6.47;;
6517;SDS011;3292;48.944;9.240;2023-07-08T03:20:51;8.03;;;6.73;;
6517;SDS011;3292;48.944;9.240;2023-07-08T03:23:18;9.07;;;6.57;;
6517;SDS011;3292;48.944;9.240;2023-07-08T03:25:45;8.23;;;6.37;;
6517;SDS011;3292;48.944;9.240;2023-07-08T03:28:12;7.47;;;6.53;;
6517;SDS011;3292;48.944;9.240;2023-07-08T03:30:40;11.17;;;6.60;;
6517;SDS011;3292;48.944;9.240;2023-07-08T03:33:07;9.40;;;5.63;;
6517;SDS011;3292;48.944;9.240;2023-07-08T03:35:36;8.23;;;6.53;;
6517;SDS011;3292;48.944;9.240;2023-07-08T03:38:03;7.67;;;6.83;;
6517;SDS011;3292;48.944;9.240;2023-07-08T03:40:30;9.03;;;6.90;;
6517;SDS011;3292;48.944;9.240;2023-07-08T03:42:57;7.97;;;6.70;;
6517;SDS011;3292;48.944;9.240;2023-07-08T03:45:25;7.30;;;6.60;;
6517;SDS011;3292;48.944;9.240;2023-07-08T03:47:52;8.50;;;6.53;;
6517;SDS011;3292;48.944;9.240;2023-07-08T03:50:19;7.40;;;6.40;;
6517;SDS011;3292;48.944;9.240;2023-07-08T03:52:49;7.87;;;6.40;;
6517;SDS011;3292;48.944;9.240;2023-07-08T03:55:18;8.53;;;6.47;;
6517;SDS011;3292;48.944;9.240;2023-07-08T03:57:45;7.90;;;6.53;;
6517;SDS011;3292;48.944;9.240;2023-07-08T04:00:12;7.87;;;7.07;;
6517;SDS011;3292;48.944;9.240;2023-07-08T04:02:40;7.60;;;6.30;;
6517;SDS011;3292;48.944;9.240;2023-07-08T04:05:08;7.57;;;6.70;;
6517;SDS011;3292;48.944;9.240;2023-07-08T04:07:39;8.87;;;6.80;;
6517;SDS011;3292;48.944;9.240;2023-07-08T04:10:08;10.90;;;7.20;;
6517;SDS011;3292;48.944;9.240;2023-07-08T04:12:35;9.70;;;7.57;;
6517;SDS011;3292;48.944;9.240;2023-07-08T04:15:02;10.57;;;8.17;;
6517;SDS011;3292;48.944;9.240;2023-07-08T04:17:29;8.43;;;7.27;;
6517;SDS011;3292;48.944;9.240;2023-07-08T04:19:56;7.67;;;6.87;;
6517;SDS011;3292;48.944;9.240;2023-07-08T04:22:23;7.80;;;6.97;;
6517;SDS011;3292;48.944;9.240;2023-07-08T04:24:50;7.50;;;6.80;;
6517;SDS011;3292;48.944;9.240;2023-07-08T04:27:18;8.37;;;7.10;;
6517;SDS011;3292;48.944;9.240;2023-07-08T04:29:45;7.93;;;7.13;;
6517;SDS011;3292;48.944;9.240;2023-07-08T04:32:12;8.47;;;6.67;;
6517;SDS011;3292;48.944;9.240;2023-07-08T04:34:41;7.43;;;6.60;;
6517;SDS011;3292;48.944;9.240;2023-07-08T04:37:08;7.97;;;6.50;;
6517;SDS011;3292;48.944;9.240;2023-07-08T04:39:38;8.00;;;6.50;;
6517;SDS011;3292;48.944;9.240;2023-07-08T04:42:04;9.23;;;6.90;;
6517;SDS011;3292;48.944;9.240;2023-07-08T04:44:34;8.97;;;7.00;;
6517;SDS011;3292;48.944;9.240;2023-07-08T04:47:01;7.97;;;6.43;;
6517;SDS011;3292;48.944;9.240;2023-07-08T04:49:28;11.00;;;6.40;;
6517;SDS011;3292;48.944;9.240;2023-07-08T04:51:56;7.17;;;6.27;;
6517;SDS011;3292;48.944;9.240;2023-07-08T04:54:24;7.07;;;6.13;;
6517;SDS011;3292;48.944;9.240;2023-07-08T04:56:51;6.83;;;6.13;;
6517;SDS011;3292;48.944;9.240;2023-07-08T04:59:19;9.67;;;5.93;;
6517;SDS011;3292;48.944;9.240;2023-07-08T05:01:49;7.83;;;6.50;;
6517;SDS011;3292;48.944;9.240;2023-07-08T05:04:18;8.13;;;6.10;;
6517;SDS011;3292;48.944;9.240;2023-07-08T05:06:46;8.60;;;6.67;;
6517;SDS011;3292;48.944;9.240;2023-07-08T05:09:13;8.67;;;6.80;;
6517;SDS011;3292;48.944;9.240;2023-07-08T05:11:40;9.50;;;6.20;;
6517;SDS011;3292;48.944;9.240;2023-07-08T05:14:06;8.10;;;5.87;;
6517;SDS011;3292;48.944;9.240;2023-07-08T05:16:34;6.97;;;5.77;;
6517;SDS011;3292;48.944;9.240;2023-07-08T05:19:02;7.37;;;5.90;;
6517;SDS011;3292;48.944;9.240;2023-07-08T05:21:30;6.60;;;6.00;;
6517;SDS011;3292;48.944;9.240;2023-07-08T05:23:59;7.43;;;5.70;;
6517;SDS011;3292;48.944;9.240;2023-07-08T05:26:25;8.93;;;6.23;;
6517;SDS011;3292;48.944;9.240;2023-07-08T05:28:53;9.97;;;6.20;;
6517;SDS011;3292;48.944;9.240;2023-07-08T05:31:19;8.33;;;6.20;;
6517;SDS011;3292;48.944;9.240;2023-07-08T05:33:46;9.60;;;6.80;;
6517;SDS011;3292;48.944;9.240;2023-07-08T05:36:14;7.20;;;6.03;;
6517;SDS011;3292;48.944;9.240;2023-07-08T05:38:41;8.50;;;6.80;;
6517;SDS011;3292;48.944;9.240;2023-07-08T05:41:09;7.60;;;6.60;;
6517;SDS011;3292;48.944;9.240;2023-07-08T05:43:37;9.13;;;6.67;;
6517;SDS011;3292;48.944;9.240;2023-07-08T05:46:04;6.73;;;6.00;;
6517;SDS011;3292;48.944;9.240;2023-07-08T05:48:31;8.10;;;6.60;;
6517;SDS011;3292;48.944;9.240;2023-07-08T05:50:59;7.03;;;6.23;;
6517;SDS011;3292;48.944;9.240;2023-07-08T05:53:27;8.17;;;6.40;;
6517;SDS011;3292;48.944;9.240;2023-07-08T05:55:54;7.43;;;6.13;;
6517;SDS011;3292;48.944;9.240;2023-07-08T05:58:21;9.13;;;6.40;;
6517;SDS011;3292;48.944;9.240;2023-07-08T06:00:54;7.10;;;6.40;;
6517;SDS011;3292;48.944;9.240;2023-07-08T06:03:22;8.93;;;6.47;;
6517;SDS011;3292;48.944;9.240;2023-07-08T06:05:49;9.00;;;6.80;;
6517;SDS011;3292;48.944;9.240;2023-07-08T06:08:16;8.03;;;6.40;;
6517;SDS011;3292;48.944;9.240;2023-07-08T06:10:44;7.73;;;6.93;;
6517;SDS011;3292;48.944;9.240;2023-07-08T06:13:12;8.13;;;6.47;;
6517;SDS011;3292;48.944;9.240;2023-07-08T06:15:39;7.80;;;6.40;;
6517;SDS011;3292;48.944;9.240;2023-07-08T06:18:07;6.70;;;6.00;;
6517;SDS011;3292;48.944;9.240;2023-07-08T06:20:34;8.13;;;6.23;;
6517;SDS011;3292;48.944;9.240;2023-07-08T06:23:01;9.30;;;6.47;;
6517;SDS011;3292;48.944;9.240;2023-07-08T06:25:28;8.15;;;6.50;;
6517;SDS011;3292;48.944;9.240;2023-07-08T06:27:57;7.35;;;6.47;;
6517;SDS011;3292;48.944;9.240;2023-07-08T06:30:24;8.45;;;6.57;;
6517;SDS011;3292;48.944;9.240;2023-07-08T06:32:51;7.50;;;5.88;;
6517;SDS011;3292;48.944;9.240;2023-07-08T06:35:18;6.50;;;5.90;;
6517;SDS011;3292;48.944;9.240;2023-07-08T06:37:45;7.15;;;6.00;;
6517;SDS011;3292;48.944;9.240;2023-07-08T06:40:12;6.82;;;6.13;;
6517;SDS011;3292;48.944;9.240;2023-07-08T06:42:39;7.05;;;6.35;;
6517;SDS011;3292;48.944;9.240;2023-07-08T06:45:08;7.30;;;6.60;;
6517;SDS011;3292;48.944;9.240;2023-07-08T06:47:36;7.60;;;6.90;;
6517;SDS011;3292;48.944;9.240;2023-07-08T06:50:03;7.82;;;6.35;;
6517;SDS011;3292;48.944;9.240;2023-07-08T06:52:32;6.70;;;5.88;;
6517;SDS011;3292;48.944;9.240;2023-07-08T06:55:02;6.45;;;5.85;;
6517;SDS011;3292;48.944;9.240;2023-07-08T06:57:32;7.28;;;6.57;;
6517;SDS011;3292;48.944;9.240;2023-07-08T07:00:00;7.28;;;6.55;;
6517;SDS011;3292;48.944;9.240;2023-07-08T07:02:29;11.48;;;6.75;;
6517;SDS011;3292;48.944;9.240;2023-07-08T07:04:56;7.55;;;6.70;;
6517;SDS011;3292;48.944;9.240;2023-07-08T07:07:23;7.28;;;6.57;;
6517;SDS011;3292;48.944;9.240;2023-07-08T07:09:50;6.97;;;6.38;;
6517;SDS011;3292;48.944;9.240;2023-07-08T07:12:17;7.68;;;6.72;;
6517;SDS011;3292;48.944;9.240;2023-07-08T07:14:44;7.28;;;6.38;;
6517;SDS011;3292;48.944;9.240;2023-07-08T07:17:11;7.10;;;6.40;;
6517;SDS011;3292;48.944;9.240;2023-07-08T07:19:39;7.00;;;6.32;;
6517;SDS011;3292;48.944;9.240;2023-07-08T07:22:06;7.35;;;6.63;;
6517;SDS011;3292;48.944;9.240;2023-07-08T07:24:33;9.20;;;6.55;;
6517;SDS011;3292;48.944;9.240;2023-07-08T07:26:59;8.93;;;6.95;;
6517;SDS011;3292;48.944;9.240;2023-07-08T07:29:26;7.53;;;6.53;;
6517;SDS011;3292;48.944;9.240;2023-07-08T07:31:53;7.60;;;6.80;;
6517;SDS011;3292;48.944;9.240;2023-07-08T07:34:20;9.27;;;7.00;;
6517;SDS011;3292;48.944;9.240;2023-07-08T07:36:49;7.85;;;7.03;;
6517;SDS011;3292;48.944;9.240;2023-07-08T07:39:15;9.25;;;7.07;;
6517;SDS011;3292;48.944;9.240;2023-07-08T07:41:42;7.35;;;6.50;;
6517;SDS011;3292;48.944;9.240;2023-07-08T07:44:09;7.05;;;6.35;;
6517;SDS011;3292;48.944;9.240;2023-07-08T07:46:36;6.35;;;5.75;;
6517;SDS011;3292;48.944;9.240;2023-07-08T07:49:03;7.00;;;5.55;;
6517;SDS011;3292;48.944;9.240;2023-07-08T07:51:29;9.98;;;6.63;;
6517;SDS011;3292;48.944;9.240;2023-07-08T07:53:57;7.32;;;6.35;;
6517;SDS011;3292;48.944;9.240;2023-07-08T07:56:24;7.97;;;6.13;;
6517;SDS011;3292;48.944;9.240;2023-07-08T07:58:53;6.88;;;6.18;;
6517;SDS011;3292;48.944;9.240;2023-07-08T08:01:22;7.00;;;6.30;;
6517;SDS011;3292;48.944;9.240;2023-07-08T08:03:49;10.07;;;6.40;;
6517;SDS011;3292;48.944;9.240;2023-07-08T08:06:16;6.63;;;5.47;;
6517;SDS011;3292;48.944;9.240;2023-07-08T08:08:43;6.93;;;6.15;;
6517;SDS011;3292;48.944;9.240;2023-07-08T08:11:12;6.90;;;6.20;;
6517;SDS011;3292;48.944;9.240;2023-07-08T08:13:38;9.50;;;5.90;;
6517;SDS011;3292;48.944;9.240;2023-07-08T08:16:05;6.82;;;6.00;;
6517;SDS011;3292;48.944;9.240;2023-07-08T08:18:32;7.85;;;5.65;;
6517;SDS011;3292;48.944;9.240;2023-07-08T08:20:59;10.00;;;6.60;;
6517;SDS011;3292;48.944;9.240;2023-07-08T08:23:26;8.00;;;6.28;;
6517;SDS011;3292;48.944;9.240;2023-07-08T08:25:53;7.35;;;6.03;;
6517;SDS011;3292;48.944;9.240;2023-07-08T08:28:21;12.00;;;6.63;;
6517;SDS011;3292;48.944;9.240;2023-07-08T08:30:48;8.35;;;5.97;;
6517;SDS011;3292;48.944;9.240;2023-07-08T08:33:15;6.45;;;5.75;;
6517;SDS011;3292;48.944;9.240;2023-07-08T08:35:43;6.80;;;5.68;;
6517;SDS011;3292;48.944;9.240;2023-07-08T08:38:09;6.88;;;6.07;;
6517;SDS011;3292;48.944;9.240;2023-07-08T08:40:36;7.80;;;6.28;;
6517;SDS011;3292;48.944;9.240;2023-07-08T08:43:06;6.43;;;5.82;;
6517;SDS011;3292;48.944;9.240;2023-07-08T08:45:39;8.23;;;5.68;;
6517;SDS011;3292;48.944;9.240;2023-07-08T08:48:14;7.53;;;6.07;;
6517;SDS011;3292;48.944;9.240;2023-07-08T08:50:47;7.07;;;5.90;;
6517;SDS011;3292;48.944;9.240;2023-07-08T08:53:17;7.35;;;6.00;;
6517;SDS011;3292;48.944;9.240;2023-07-08T08:55:46;6.82;;;5.47;;
6517;SDS011;3292;48.944;9.240;2023-07-08T08:58:21;8.10;;;6.15;;
6517;SDS011;3292;48.944;9.240;2023-07-08T09:00:58;6.53;;;5.80;;
6517;SDS011;3292;48.944;9.240;2023-07-08T09:03:35;6.70;;;6.05;;
6517;SDS011;3292;48.944;9.240;2023-07-08T09:06:12;5.88;;;5.28;;
6517;SDS011;3292;48.944;9.240;2023-07-08T09:08:40;6.93;;;5.80;;
6517;SDS011;3292;48.944;9.240;2023-07-08T09:11:10;9.07;;;5.57;;
6517;SDS011;3292;48.944;9.240;2023-07-08T09:13:49;7.20;;;5.80;;
6517;SDS011;3292;48.944;9.240;2023-07-08T09:16:20;8.65;;;5.72;;
6517;SDS011;3292;48.944;9.240;2023-07-08T09:18:56;7.78;;;5.60;;
6517;SDS011;3292;48.944;9.240;2023-07-08T09:21:26;5.93;;;5.40;;
6517;SDS011;3292;48.944;9.240;2023-07-08T09:23:57;8.15;;;5.00;;
6517;SDS011;3292;48.944;9.240;2023-07-08T09:26:28;8.57;;;5.07;;
6517;SDS011;3292;48.944;9.240;2023-07-08T09:28:57;6.35;;;5.40;;
6517;SDS011;3292;48.944;9.240;2023-07-08T09:31:25;5.63;;;5.13;;
6517;SDS011;3292;48.944;9.240;2023-07-08T09:33:54;6.10;;;4.60;;
6517;SDS011;3292;48.944;9.240;2023-07-08T09:36:32;7.38;;;4.72;;
6517;SDS011;3292;48.944;9.240;2023-07-08T09:39:00;6.07;;;5.10;;
6517;SDS011;3292;48.944;9.240;2023-07-08T09:41:28;6.20;;;4.63;;
6517;SDS011;3292;48.944;9.240;2023-07-08T09:44:04;6.47;;;4.93;;
6517;SDS011;3292;48.944;9.240;2023-07-08T09:46:41;6.00;;;4.63;;
6517;SDS011;3292;48.944;9.240;2023-07-08T09:49:15;5.80;;;4.70;;
6517;SDS011;3292;48.944;9.240;2023-07-08T09:51:44;5.20;;;4.65;;
6517;SDS011;3292;48.944;9.240;2023-07-08T09:54:11;6.30;;;4.50;;
6517;SDS011;3292;48.944;9.240;2023-07-08T09:56:40;5.88;;;5.28;;
6517;SDS011;3292;48.944;9.240;2023-07-08T09:59:11;5.75;;;4.70;;
6517;SDS011;3292;48.944;9.240;2023-07-08T10:01:39;4.78;;;4.30;;
6517;SDS011;3292;48.944;9.240;2023-07-08T10:04:08;13.07;;;4.82;;
6517;SDS011;3292;48.944;9.240;2023-07-08T10:06:35;7.25;;;4.45;;
6517;SDS011;3292;48.944;9.240;2023-07-08T10:09:02;5.80;;;4.75;;
6517;SDS011;3292;48.944;9.240;2023-07-08T10:11:31;6.60;;;4.47;;
6517;SDS011;3292;48.944;9.240;2023-07-08T10:14:01;5.30;;;4.70;;
6517;SDS011;3292;48.944;9.240;2023-07-08T10:16:33;5.85;;;4.35;;
6517;SDS011;3292;48.944;9.240;2023-07-08T10:19:04;7.55;;;4.05;;
6517;SDS011;3292;48.944;9.240;2023-07-08T10:21:40;7.07;;;3.88;;
6517;SDS011;3292;48.944;9.240;2023-07-08T10:24:24;6.38;;;4.53;;
6517;SDS011;3292;48.944;9.240;2023-07-08T10:27:00;5.63;;;4.10;;
6517;SDS011;3292;48.944;9.240;2023-07-08T10:29:36;4.63;;;4.20;;
6517;SDS011;3292;48.944;9.240;2023-07-08T10:32:15;5.68;;;3.70;;
6517;SDS011;3292;48.944;9.240;2023-07-08T10:34:52;4.85;;;4.13;;
6517;SDS011;3292;48.944;9.240;2023-07-08T10:37:25;5.43;;;4.25;;
6517;SDS011;3292;48.944;9.240;2023-07-08T10:40:02;6.55;;;4.00;;
6517;SDS011;3292;48.944;9.240;2023-07-08T10:42:46;4.70;;;3.97;;
6517;SDS011;3292;48.944;9.240;2023-07-08T10:45:23;7.95;;;3.88;;
6517;SDS011;3292;48.944;9.240;2023-07-08T10:48:01;4.85;;;3.67;;
6517;SDS011;3292;48.944;9.240;2023-07-08T10:50:44;5.32;;;4.10;;
6517;SDS011;3292;48.944;9.240;2023-07-08T10:53:23;5.95;;;3.33;;
6517;SDS011;3292;48.944;9.240;2023-07-08T10:56:02;3.80;;;3.40;;
6517;SDS011;3292;48.944;9.240;2023-07-08T10:58:39;2.88;;;2.53;;
6517;SDS011;3292;48.944;9.240;2023-07-08T11:01:21;3.38;;;2.70;;
6517;SDS011;3292;48.944;9.240;2023-07-08T11:04:02;3.92;;;2.55;;
6517;SDS011;3292;48.944;9.240;2023-07-08T11:06:45;2.55;;;2.35;;
6517;SDS011;3292;48.944;9.240;2023-07-08T11:09:24;3.22;;;2.40;;
6517;SDS011;3292;48.944;9.240;2023-07-08T11:11:56;3.03;;;2.60;;
6517;SDS011;3292;48.944;9.240;2023-07-08T11:14:28;3.78;;;3.20;;
6517;SDS011;3292;48.944;9.240;2023-07-08T11:17:06;4.75;;;3.17;;
6517;SDS011;3292;48.944;9.240;2023-07-08T11:19:42;6.07;;;3.25;;
6517;SDS011;3292;48.944;9.240;2023-07-08T11:22:14;5.95;;;3.47;;
6517;SDS011;3292;48.944;9.240;2023-07-08T11:24:43;6.50;;;4.18;;
6517;SDS011;3292;48.944;9.240;2023-07-08T11:27:15;4.43;;;3.72;;
6517;SDS011;3292;48.944;9.240;2023-07-08T11:29:49;5.72;;;3.88;;
6517;SDS011;3292;48.944;9.240;2023-07-08T11:32:19;5.85;;;3.92;;
6517;SDS011;3292;48.944;9.240;2023-07-08T11:34:50;4.68;;;4.07;;
6517;SDS011;3292;48.944;9.240;2023-07-08T11:37:20;5.22;;;3.85;;
6517;SDS011;3292;48.944;9.240;2023-07-08T11:39:52;6.65;;;4.03;;
6517;SDS011;3292;48.944;9.240;2023-07-08T11:42:21;6.05;;;4.22;;
6517;SDS011;3292;48.944;9.240;2023-07-08T11:44:51;6.63;;;3.72;;
6517;SDS011;3292;48.944;9.240;2023-07-08T11:47:24;4.75;;;3.65;;
6517;SDS011;3292;48.944;9.240;2023-07-08T11:49:58;7.85;;;3.55;;
6517;SDS011;3292;48.944;9.240;2023-07-08T11:52:28;5.05;;;3.53;;
6517;SDS011;3292;48.944;9.240;2023-07-08T11:54:57;3.70;;;3.38;;
6517;SDS011;3292;48.944;9.240;2023-07-08T11:57:29;6.65;;;4.03;;
6517;SDS011;3292;48.944;9.240;2023-07-08T12:00:12;5.60;;;4.43;;
6517;SDS011;3292;48.944;9.240;2023-07-08T12:05:31;4.10;;;3.10;;
6517;SDS011;3292;48.944;9.240;2023-07-08T12:08:01;4.78;;;3.65;;
6517;SDS011;3292;48.944;9.240;2023-07-08T12:10:32;3.83;;;3.40;;
6517;SDS011;3292;48.944;9.240;2023-07-08T12:13:01;4.60;;;3.10;;
6517;SDS011;3292;48.944;9.240;2023-07-08T12:15:28;4.72;;;3.10;;
6517;SDS011;3292;48.944;9.240;2023-07-08T12:17:58;4.60;;;3.30;;
6517;SDS011;3292;48.944;9.240;2023-07-08T12:20:28;3.83;;;2.97;;
6517;SDS011;3292;48.944;9.240;2023-07-08T12:22:57;4.38;;;2.95;;
6517;SDS011;3292;48.944;9.240;2023-07-08T12:25:27;4.20;;;3.22;;
6517;SDS011;3292;48.944;9.240;2023-07-08T12:27:57;4.15;;;2.67;;
6517;SDS011;3292;48.944;9.240;2023-07-08T12:30:24;4.45;;;2.85;;
6517;SDS011;3292;48.944;9.240;2023-07-08T12:32:53;5.82;;;2.92;;
6517;SDS011;3292;48.944;9.240;2023-07-08T12:35:24;3.47;;;2.75;;
6517;SDS011;3292;48.944;9.240;2023-07-08T12:37:54;3.72;;;2.80;;
6517;SDS011;3292;48.944;9.240;2023-07-08T12:40:25;6.40;;;2.83;;
6517;SDS011;3292;48.944;9.240;2023-07-08T12:42:55;2.70;;;2.28;;
6517;SDS011;3292;48.944;9.240;2023-07-08T12:45:25;3.53;;;2.75;;
6517;SDS011;3292;48.944;9.240;2023-07-08T12:47:52;2.88;;;2.63;;
6517;SDS011;3292;48.944;9.240;2023-07-08T12:50:19;3.75;;;2.55;;
6517;SDS011;3292;48.944;9.240;2023-07-08T12:52:46;3.67;;;2.80;;
6517;SDS011;3292;48.944;9.240;2023-07-08T12:55:14;2.97;;;2.67;;
6517;SDS011;3292;48.944;9.240;2023-07-08T12:57:43;3.35;;;2.63;;
6517;SDS011;3292;48.944;9.240;2023-07-08T13:00:13;3.88;;;2.70;;
6517;SDS011;3292;48.944;9.240;2023-07-08T13:02:43;3.15;;;2.42;;
6517;SDS011;3292;48.944;9.240;2023-07-08T13:05:12;3.20;;;2.38;;
6517;SDS011;3292;48.944;9.240;2023-07-08T13:07:40;4.55;;;2.97;;
6517;SDS011;3292;48.944;9.240;2023-07-08T13:10:17;3.05;;;2.75;;
6517;SDS011;3292;48.944;9.240;2023-07-08T13:12:47;3.05;;;2.40;;
6517;SDS011;3292;48.944;9.240;2023-07-08T13:15:19;3.60;;;2.28;;
6517;SDS011;3292;48.944;9.240;2023-07-08T13:17:49;3.03;;;2.70;;
6517;SDS011;3292;48.944;9.240;2023-07-08T13:20:17;2.95;;;2.50;;
6517;SDS011;3292;48.944;9.240;2023-07-08T13:22:46;3.72;;;2.67;;
6517;SDS011;3292;48.944;9.240;2023-07-08T13:25:17;3.40;;;3.05;;
6517;SDS011;3292;48.944;9.240;2023-07-08T13:27:55;4.30;;;3.10;;
6517;SDS011;3292;48.944;9.240;2023-07-08T13:30:24;5.47;;;2.92;;
6517;SDS011;3292;48.944;9.240;2023-07-08T13:32:52;4.45;;;3.00;;
6517;SDS011;3292;48.944;9.240;2023-07-08T13:35:27;4.88;;;2.88;;
6517;SDS011;3292;48.944;9.240;2023-07-08T13:38:00;5.35;;;2.78;;
6517;SDS011;3292;48.944;9.240;2023-07-08T13:40:28;3.28;;;2.70;;
6517;SDS011;3292;48.944;9.240;2023-07-08T13:42:56;5.25;;;2.90;;
6517;SDS011;3292;48.944;9.240;2023-07-08T13:45:26;4.03;;;2.50;;
6517;SDS011;3292;48.944;9.240;2023-07-08T13:47:58;3.75;;;2.72;;
6517;SDS011;3292;48.944;9.240;2023-07-08T13:50:28;2.90;;;2.60;;
6517;SDS011;3292;48.944;9.240;2023-07-08T13:53:02;2.83;;;2.40;;
6517;SDS011;3292;48.944;9.240;2023-07-08T13:55:29;3.17;;;2.33;;
6517;SDS011;3292;48.944;9.240;2023-07-08T13:57:59;3.42;;;2.72;;
6517;SDS011;3292;48.944;9.240;2023-07-08T14:00:29;3.58;;;2.47;;
6517;SDS011;3292;48.944;9.240;2023-07-08T14:02:57;3.03;;;2.60;;
6517;SDS011;3292;48.944;9.240;2023-07-08T14:05:24;4.70;;;2.65;;
6517;SDS011;3292;48.944;9.240;2023-07-08T14:07:51;4.70;;;2.70;;
6517;SDS011;3292;48.944;9.240;2023-07-08T14:10:17;8.43;;;2.95;;
6517;SDS011;3292;48.944;9.240;2023-07-08T14:12:44;3.65;;;2.60;;
6517;SDS011;3292;48.944;9.240;2023-07-08T14:15:12;3.17;;;2.60;;
6517;SDS011;3292;48.944;9.240;2023-07-08T14:17:39;3.20;;;2.50;;
6517;SDS011;3292;48.944;9.240;2023-07-08T14:20:11;3.63;;;2.72;;
6517;SDS011;3292;48.944;9.240;2023-07-08T14:22:41;3.90;;;2.63;;
6517;SDS011;3292;48.944;9.240;2023-07-08T14:25:08;3.75;;;2.70;;
6517;SDS011;3292;48.944;9.240;2023-07-08T14:27:36;4.50;;;2.65;;
6517;SDS011;3292;48.944;9.240;2023-07-08T14:30:03;2.95;;;2.55;;
6517;SDS011;3292;48.944;9.240;2023-07-08T14:32:32;3.40;;;2.80;;
6517;SDS011;3292;48.944;9.240;2023-07-08T14:35:15;3.80;;;2.78;;
6517;SDS011;3292;48.944;9.240;2023-07-08T14:37:45;4.05;;;2.80;;
6517;SDS011;3292;48.944;9.240;2023-07-08T14:42:46;3.13;;;2.42;;
6517;SDS011;3292;48.944;9.240;2023-07-08T14:45:13;3.60;;;2.47;;
6517;SDS011;3292;48.944;9.240;2023-07-08T14:47:41;3.28;;;2.60;;
6517;SDS011;3292;48.944;9.240;2023-07-08T14:50:12;3.58;;;2.65;;
6517;SDS011;3292;48.944;9.240;2023-07-08T14:52:40;5.10;;;3.00;;
6517;SDS011;3292;48.944;9.240;2023-07-08T14:55:07;3.33;;;2.90;;
6517;SDS011;3292;48.944;9.240;2023-07-08T14:57:39;2.78;;;2.55;;
6517;SDS011;3292;48.944;9.240;2023-07-08T15:00:10;5.07;;;2.47;;
6517;SDS011;3292;48.944;9.240;2023-07-08T15:02:40;4.47;;;2.95;;
6517;SDS011;3292;48.944;9.240;2023-07-08T15:05:12;4.43;;;2.78;;
6517;SDS011;3292;48.944;9.240;2023-07-08T15:07:40;5.30;;;2.70;;
6517;SDS011;3292;48.944;9.240;2023-07-08T15:10:08;3.80;;;3.10;;
6517;SDS011;3292;48.944;9.240;2023-07-08T15:12:35;4.22;;;2.83;;
6517;SDS011;3292;48.944;9.240;2023-07-08T15:15:02;3.60;;;2.60;;
6517;SDS011;3292;48.944;9.240;2023-07-08T15:17:30;4.28;;;3.33;;
6517;SDS011;3292;48.944;9.240;2023-07-08T15:19:58;4.03;;;2.58;;
6517;SDS011;3292;48.944;9.240;2023-07-08T15:22:26;4.82;;;3.00;;
6517;SDS011;3292;48.944;9.240;2023-07-08T15:24:52;6.57;;;2.78;;
6517;SDS011;3292;48.944;9.240;2023-07-08T15:27:19;3.35;;;2.88;;
6517;SDS011;3292;48.944;9.240;2023-07-08T15:29:48;3.22;;;2.83;;
6517;SDS011;3292;48.944;9.240;2023-07-08T15:32:15;5.65;;;3.10;;
6517;SDS011;3292;48.944;9.240;2023-07-08T15:34:44;4.03;;;3.10;;